Time;durP1;ratioP1;P1;durP2;ratioP2;P2;SDS_P1;SDS_P2;PMS_P1;PMS_P2;Temp;Humidity;BMP_temperature;BMP_pressure;BME280_temperature;BME280_humidity;BME280_pressure;Samples;Min_cycle;Max_cycle;Signal;HPM_P1;HPM_P2
2023/08/07 00:02:11;;;;;;;15.83;11.40;;;12.70;99.90;;;;;;5098397;28;20465;-68
2023/08/07 00:04:38;;;;;;;11.77;10.83;;;12.70;99.90;;;;;;5103946;28;20517;-70
2023/08/07 00:07:06;;;;;;;10.80;10.20;;;12.70;99.90;;;;;;5101755;28;20831;-68
2023/08/07 00:09:32;;;;;;;10.43;9.97;;;12.70;99.90;;;;;;5092608;28;20474;-69
2023/08/07 00:12:00;;;;;;;10.23;9.63;;;12.60;99.90;;;;;;5100392;28;20460;-68
2023/08/07 00:14:27;;;;;;;41.60;10.37;;;12.60;99.90;;;;;;5108590;28;20457;-68
2023/08/07 00:16:54;;;;;;;9.83;9.33;;;12.60;99.90;;;;;;5101412;28;20500;-71
2023/08/07 00:19:21;;;;;;;10.40;9.80;;;12.60;99.90;;;;;;5090347;28;20484;-68
2023/08/07 00:21:48;;;;;;;9.63;9.03;;;12.60;99.90;;;;;;5102456;28;20457;-69
2023/08/07 00:24:16;;;;;;;9.80;9.40;;;12.70;99.90;;;;;;5086243;28;20466;-71
2023/08/07 00:26:43;;;;;;;10.70;9.73;;;12.70;99.90;;;;;;5104432;28;20718;-69
2023/08/07 00:29:11;;;;;;;9.40;9.00;;;12.70;99.90;;;;;;5097302;28;20543;-70
2023/08/07 00:31:38;;;;;;;10.97;9.57;;;12.70;99.90;;;;;;5106116;28;20948;-69
2023/08/07 00:34:05;;;;;;;10.90;10.00;;;12.70;99.90;;;;;;5091517;28;20466;-69
2023/08/07 00:36:34;;;;;;;11.50;10.60;;;12.70;99.90;;;;;;5096802;28;20464;-69
2023/08/07 00:39:03;;;;;;;10.23;9.83;;;12.60;99.90;;;;;;5099225;28;20503;-68
2023/08/07 00:41:30;;;;;;;10.90;10.17;;;12.70;99.90;;;;;;5102879;28;20495;-69
2023/08/07 00:43:57;;;;;;;10.83;10.20;;;12.60;99.90;;;;;;5096669;28;20461;-70
2023/08/07 00:46:26;;;;;;;10.00;9.60;;;12.60;99.90;;;;;;5099067;28;20465;-69
2023/08/07 00:48:54;;;;;;;11.97;11.30;;;12.50;99.90;;;;;;5102739;28;20465;-69
2023/08/07 00:51:22;;;;;;;9.17;8.87;;;12.60;99.90;;;;;;5096661;28;20495;-72
2023/08/07 00:53:50;;;;;;;9.80;9.40;;;12.50;99.90;;;;;;5092401;28;20461;-70
2023/08/07 00:56:17;;;;;;;9.90;9.60;;;12.60;99.90;;;;;;5105906;28;20532;-70
2023/08/07 00:58:45;;;;;;;10.13;9.83;;;12.60;99.90;;;;;;5095304;28;20460;-69
2023/08/07 01:01:12;;;;;;;11.20;10.70;;;12.60;99.90;;;;;;5103667;28;20471;-71
2023/08/07 01:03:41;;;;;;;11.17;10.47;;;12.60;99.90;;;;;;5086558;28;20466;-71
2023/08/07 01:06:08;;;;;;;11.60;11.00;;;12.60;99.90;;;;;;5102189;28;20453;-70
2023/08/07 01:08:36;;;;;;;11.40;10.90;;;12.60;99.90;;;;;;5101684;28;20833;-69
2023/08/07 01:11:19;;;;;;;12.30;11.50;;;12.60;99.90;;;;;;5093658;28;20491;-70
2023/08/07 01:13:56;;;;;;;11.97;11.40;;;12.60;99.90;;;;;;5092377;28;20458;-69
2023/08/07 01:16:29;;;;;;;12.10;11.60;;;12.70;99.90;;;;;;5101028;28;20486;-70
2023/08/07 01:19:00;;;;;;;13.13;12.43;;;12.70;99.90;;;;;;5089526;28;20469;-70
2023/08/07 01:21:28;;;;;;;12.50;11.60;;;12.70;99.90;;;;;;5099341;28;20819;-69
2023/08/07 01:23:58;;;;;;;12.00;11.50;;;12.70;99.90;;;;;;5098738;28;20870;-69
2023/08/07 01:26:25;;;;;;;11.70;11.00;;;12.70;99.90;;;;;;5099483;28;20484;-70
2023/08/07 01:29:00;;;;;;;11.67;11.17;;;12.70;99.90;;;;;;5101248;28;20460;-70
2023/08/07 01:31:29;;;;;;;11.70;11.10;;;12.70;99.90;;;;;;5093821;28;20488;-69
2023/08/07 01:34:01;;;;;;;11.50;10.80;;;12.70;99.90;;;;;;5103522;28;20453;-70
2023/08/07 01:36:29;;;;;;;13.40;12.70;;;12.70;99.90;;;;;;5108451;28;20793;-70
2023/08/07 01:39:00;;;;;;;14.33;11.20;;;12.70;99.90;;;;;;5099002;28;20817;-70
2023/08/07 01:41:29;;;;;;;11.13;10.63;;;12.70;99.90;;;;;;5094930;28;20453;-68
2023/08/07 01:43:56;;;;;;;12.60;11.70;;;12.70;99.90;;;;;;5103938;28;20456;-70
2023/08/07 01:46:23;;;;;;;12.20;11.37;;;12.60;99.90;;;;;;5107113;28;20734;-69
2023/08/07 01:48:49;;;;;;;10.50;10.10;;;12.60;99.90;;;;;;5093940;28;20937;-70
2023/08/07 01:51:16;;;;;;;13.20;11.87;;;12.60;99.90;;;;;;5097411;28;20481;-70
2023/08/07 01:53:43;;;;;;;13.33;11.43;;;12.70;99.90;;;;;;5103671;28;20453;-69
2023/08/07 01:56:11;;;;;;;11.17;10.77;;;12.60;99.90;;;;;;5101694;28;20461;-69
2023/08/07 01:58:39;;;;;;;12.17;11.40;;;12.60;99.90;;;;;;5100407;28;20460;-68
2023/08/07 02:01:06;;;;;;;12.23;11.73;;;12.70;99.90;;;;;;5099927;28;20978;-70
2023/08/07 02:03:33;;;;;;;13.03;12.43;;;12.60;99.90;;;;;;5101538;28;20454;-69
2023/08/07 02:06:01;;;;;;;14.23;13.53;;;12.60;99.90;;;;;;5102148;28;20548;-70
2023/08/07 02:08:28;;;;;;;12.67;12.17;;;12.60;99.90;;;;;;5105296;28;21019;-69
2023/08/07 02:10:55;;;;;;;12.10;11.60;;;12.60;99.90;;;;;;5095470;28;20854;-69
2023/08/07 02:13:23;;;;;;;13.53;12.83;;;12.50;99.90;;;;;;5110409;27;20481;-69
2023/08/07 02:15:50;;;;;;;15.73;14.30;;;12.50;99.90;;;;;;5100087;28;20483;-70
2023/08/07 02:18:16;;;;;;;13.30;12.70;;;12.50;99.90;;;;;;5103370;28;20453;-71
2023/08/07 02:20:43;;;;;;;12.97;12.27;;;12.50;99.90;;;;;;5100744;28;20466;-71
2023/08/07 02:23:10;;;;;;;13.63;12.83;;;12.60;99.90;;;;;;5100003;28;20457;-71
2023/08/07 02:25:36;;;;;;;13.47;12.77;;;12.60;99.90;;;;;;5101464;28;20462;-69
2023/08/07 02:28:03;;;;;;;13.00;12.50;;;12.60;99.90;;;;;;5103633;28;20464;-70
2023/08/07 02:30:33;;;;;;;13.23;12.60;;;12.60;99.90;;;;;;5099421;28;20481;-71
2023/08/07 02:32:59;;;;;;;12.00;11.60;;;12.60;99.90;;;;;;5106894;28;20502;-69
2023/08/07 02:35:26;;;;;;;13.43;12.83;;;12.60;99.90;;;;;;5099928;28;20473;-69
2023/08/07 02:37:53;;;;;;;13.93;12.80;;;12.60;99.90;;;;;;5102888;28;20463;-70
2023/08/07 02:40:20;;;;;;;14.10;13.30;;;12.70;99.90;;;;;;5110861;28;20453;-69
2023/08/07 02:42:47;;;;;;;14.13;12.93;;;12.60;99.90;;;;;;5108009;28;20457;-70
2023/08/07 02:45:14;;;;;;;13.60;13.00;;;12.60;99.90;;;;;;5099591;28;20974;-68
2023/08/07 02:47:42;;;;;;;13.10;12.50;;;12.60;99.90;;;;;;5101561;28;20461;-69
2023/08/07 02:50:10;;;;;;;13.47;12.87;;;12.60;99.90;;;;;;5109313;28;20722;-70
2023/08/07 02:52:38;;;;;;;14.20;13.50;;;12.50;99.90;;;;;;5103683;28;20445;-71
2023/08/07 02:55:06;;;;;;;13.90;13.20;;;12.50;99.90;;;;;;5094960;28;20458;-69
2023/08/07 02:57:33;;;;;;;14.50;12.57;;;12.50;99.90;;;;;;5102794;28;20464;-69
2023/08/07 03:00:00;;;;;;;13.90;13.03;;;12.50;99.90;;;;;;5097007;28;20466;-70
2023/08/07 03:02:26;;;;;;;13.37;12.53;;;12.40;99.90;;;;;;5101188;28;20466;-69
2023/08/07 03:04:55;;;;;;;12.97;12.00;;;12.40;99.90;;;;;;5103302;28;20446;-69
2023/08/07 03:07:22;;;;;;;11.80;11.40;;;12.40;99.90;;;;;;5103129;28;20552;-71
2023/08/07 03:09:50;;;;;;;13.30;12.57;;;12.40;99.90;;;;;;5093798;28;20462;-69
2023/08/07 03:12:17;;;;;;;13.60;13.00;;;12.40;99.90;;;;;;5094660;28;20493;-69
2023/08/07 03:14:44;;;;;;;15.93;14.27;;;12.40;99.90;;;;;;5109573;28;20894;-71
2023/08/07 03:17:12;;;;;;;13.13;12.63;;;12.40;99.90;;;;;;5098982;28;20492;-71
2023/08/07 03:19:41;;;;;;;13.77;12.97;;;12.40;99.90;;;;;;5105026;28;20458;-69
2023/08/07 03:22:09;;;;;;;14.13;13.47;;;12.40;99.90;;;;;;5103209;28;20517;-71
2023/08/07 03:24:37;;;;;;;13.23;12.53;;;12.50;99.90;;;;;;5104291;28;20457;-68
2023/08/07 03:27:04;;;;;;;14.03;13.23;;;12.40;99.90;;;;;;5099882;28;20481;-70
2023/08/07 03:29:32;;;;;;;11.43;11.03;;;12.40;99.90;;;;;;5100885;28;20994;-70
2023/08/07 03:31:59;;;;;;;12.43;11.63;;;12.40;99.90;;;;;;5094719;28;20496;-69
2023/08/07 03:34:25;;;;;;;19.50;13.33;;;12.40;99.90;;;;;;5104830;28;20468;-70
2023/08/07 03:36:52;;;;;;;12.40;11.70;;;12.40;99.90;;;;;;5100300;27;20465;-69
2023/08/07 03:39:20;;;;;;;11.20;10.80;;;12.30;99.90;;;;;;5108386;28;20453;-70
2023/08/07 03:41:49;;;;;;;11.50;11.10;;;12.40;99.90;;;;;;5096825;28;20823;-70
2023/08/07 03:44:16;;;;;;;13.07;12.30;;;12.30;99.90;;;;;;5099932;28;20549;-71
2023/08/07 03:46:43;;;;;;;13.30;12.70;;;12.40;99.90;;;;;;5097644;28;20472;-70
2023/08/07 03:49:11;;;;;;;13.90;13.30;;;12.30;99.90;;;;;;5104053;28;20484;-69
2023/08/07 03:51:38;;;;;;;12.87;12.37;;;12.40;99.90;;;;;;5102404;28;20819;-69
2023/08/07 03:54:05;;;;;;;13.97;13.17;;;12.40;99.90;;;;;;5108305;28;20449;-69
2023/08/07 03:56:36;;;;;;;13.27;12.77;;;12.40;99.90;;;;;;5104871;28;20473;-70
2023/08/07 03:59:03;;;;;;;14.10;13.47;;;12.50;99.90;;;;;;5100257;28;20449;-70
2023/08/07 04:01:30;;;;;;;15.37;13.83;;;12.50;99.90;;;;;;5101936;28;20959;-70
2023/08/07 04:03:57;;;;;;;14.03;13.43;;;12.50;99.90;;;;;;5106950;28;20449;-69
2023/08/07 04:06:24;;;;;;;14.93;14.23;;;12.50;99.90;;;;;;5096225;28;20546;-70
2023/08/07 04:08:51;;;;;;;15.87;14.77;;;12.50;99.90;;;;;;5103190;28;20485;-69
2023/08/07 04:11:17;;;;;;;14.53;13.40;;;12.50;99.90;;;;;;5099244;28;20473;-70
2023/08/07 04:13:45;;;;;;;14.57;13.80;;;12.50;99.90;;;;;;5102100;28;20540;-68
2023/08/07 04:16:12;;;;;;;15.27;14.57;;;12.50;99.90;;;;;;5098840;28;20489;-69
2023/08/07 04:18:39;;;;;;;13.90;13.30;;;12.50;99.90;;;;;;5099213;28;20458;-70
2023/08/07 04:21:06;;;;;;;13.47;12.93;;;12.50;99.90;;;;;;5107675;28;20916;-68
2023/08/07 04:23:32;;;;;;;14.40;13.70;;;12.50;99.90;;;;;;5103033;28;20462;-70
2023/08/07 04:26:00;;;;;;;15.37;14.10;;;12.50;99.90;;;;;;5099241;28;20816;-69
2023/08/07 04:28:29;;;;;;;13.50;13.00;;;12.50;99.90;;;;;;5103587;28;20816;-70
2023/08/07 04:30:58;;;;;;;14.57;13.77;;;12.50;99.90;;;;;;5091884;28;20497;-69
2023/08/07 04:33:25;;;;;;;15.57;14.67;;;12.50;99.90;;;;;;5105076;28;20442;-69
2023/08/07 04:35:52;;;;;;;15.07;14.47;;;12.50;99.90;;;;;;5095715;28;21039;-70
2023/08/07 04:38:21;;;;;;;17.03;15.63;;;12.50;99.90;;;;;;5108901;28;20445;-69
2023/08/07 04:40:49;;;;;;;16.03;15.23;;;12.50;99.90;;;;;;5106288;28;20457;-71
2023/08/07 04:43:16;;;;;;;25.23;15.60;;;12.50;99.90;;;;;;5098458;28;20958;-68
2023/08/07 04:45:45;;;;;;;16.20;15.00;;;12.40;99.90;;;;;;5099740;28;20456;-69
2023/08/07 04:48:13;;;;;;;15.10;14.47;;;12.40;99.90;;;;;;5095359;28;21051;-70
2023/08/07 04:50:40;;;;;;;15.67;14.97;;;12.40;99.90;;;;;;5107015;28;20457;-69
2023/08/07 04:53:08;;;;;;;15.87;15.10;;;12.50;99.90;;;;;;5098709;28;20473;-69
2023/08/07 04:55:35;;;;;;;30.03;16.43;;;12.40;99.90;;;;;;5103224;28;20852;-70
2023/08/07 04:58:02;;;;;;;15.93;14.83;;;12.40;99.90;;;;;;5108329;28;20452;-68
2023/08/07 05:00:29;;;;;;;15.60;14.60;;;12.50;99.90;;;;;;5095866;28;20501;-70
2023/08/07 05:02:56;;;;;;;14.50;13.83;;;12.50;99.90;;;;;;5092007;28;20469;-70
2023/08/07 05:05:25;;;;;;;14.20;13.53;;;12.50;99.90;;;;;;5105390;28;20449;-69
2023/08/07 05:07:52;;;;;;;14.47;13.80;;;12.50;99.90;;;;;;5094168;28;20489;-69
2023/08/07 05:10:19;;;;;;;16.30;14.27;;;12.50;99.90;;;;;;5096083;28;20569;-69
2023/08/07 05:12:46;;;;;;;15.43;13.90;;;12.50;99.90;;;;;;5096377;28;20512;-69
2023/08/07 05:15:14;;;;;;;14.10;13.50;;;12.60;99.90;;;;;;5098393;28;20453;-69
2023/08/07 05:17:41;;;;;;;15.53;14.37;;;12.60;99.90;;;;;;5100266;28;21105;-68
2023/08/07 05:20:09;;;;;;;14.03;13.03;;;12.60;99.90;;;;;;5098994;28;20978;-69
2023/08/07 05:22:38;;;;;;;14.07;13.27;;;12.60;99.90;;;;;;5100382;28;20941;-69
2023/08/07 05:25:06;;;;;;;14.00;13.40;;;12.60;99.90;;;;;;5092407;28;20450;-69
2023/08/07 05:27:33;;;;;;;14.30;13.70;;;12.60;99.90;;;;;;5090973;28;20482;-70
2023/08/07 05:30:00;;;;;;;14.60;13.67;;;12.60;99.90;;;;;;5100433;28;20457;-70
2023/08/07 05:32:28;;;;;;;14.03;13.33;;;12.60;99.90;;;;;;5092836;28;21004;-70
2023/08/07 05:34:54;;;;;;;14.70;13.90;;;12.60;99.90;;;;;;5097374;28;20461;-70
2023/08/07 05:37:21;;;;;;;15.83;14.60;;;12.60;99.90;;;;;;5087615;28;21050;-69
2023/08/07 05:39:51;;;;;;;14.70;13.80;;;12.60;99.90;;;;;;5097983;28;20763;-69
2023/08/07 05:42:18;;;;;;;14.67;13.97;;;12.60;99.90;;;;;;5096068;28;20463;-68
2023/08/07 05:44:45;;;;;;;15.57;14.77;;;12.70;99.90;;;;;;5103450;28;20849;-68
2023/08/07 05:47:12;;;;;;;15.67;14.13;;;12.60;99.90;;;;;;5105129;28;21078;-68
2023/08/07 05:49:41;;;;;;;15.00;14.30;;;12.60;99.90;;;;;;5102114;28;20556;-69
2023/08/07 05:52:08;;;;;;;16.73;15.50;;;12.60;99.90;;;;;;5103674;28;20674;-69
2023/08/07 05:54:35;;;;;;;15.43;14.60;;;12.60;99.90;;;;;;5105790;28;20827;-68
2023/08/07 05:57:04;;;;;;;14.80;14.00;;;12.70;99.90;;;;;;5100355;28;20465;-68
2023/08/07 05:59:34;;;;;;;18.03;16.70;;;12.70;99.90;;;;;;5104186;28;20923;-69
2023/08/07 06:02:02;;;;;;;16.17;14.70;;;12.70;99.90;;;;;;5107357;28;20496;-71
2023/08/07 06:04:29;;;;;;;14.63;13.93;;;12.80;99.90;;;;;;5095007;28;20489;-68
2023/08/07 06:06:57;;;;;;;16.47;15.47;;;12.80;99.90;;;;;;5107346;28;20464;-69
2023/08/07 06:09:23;;;;;;;16.03;15.13;;;12.80;99.90;;;;;;5103872;28;20987;-68
2023/08/07 06:11:51;;;;;;;17.00;15.80;;;12.80;99.90;;;;;;5095445;28;20495;-69
2023/08/07 06:14:20;;;;;;;17.27;15.97;;;12.80;99.90;;;;;;5102488;28;20627;-69
2023/08/07 06:16:47;;;;;;;15.07;14.27;;;12.80;99.90;;;;;;5096081;28;20580;-70
2023/08/07 06:19:15;;;;;;;16.03;15.10;;;12.80;99.90;;;;;;5103187;28;20468;-69
2023/08/07 06:21:42;;;;;;;15.10;14.40;;;12.90;99.90;;;;;;5100099;28;20535;-68
2023/08/07 06:24:09;;;;;;;16.43;15.53;;;12.90;99.90;;;;;;5096243;28;20477;-70
2023/08/07 06:26:35;;;;;;;20.70;16.00;;;12.90;99.90;;;;;;5099633;28;21007;-69
2023/08/07 06:29:02;;;;;;;15.73;14.87;;;12.90;99.90;;;;;;5096484;28;20485;-71
2023/08/07 06:31:30;;;;;;;15.60;14.77;;;12.80;99.90;;;;;;5100928;28;20512;-69
2023/08/07 06:33:59;;;;;;;14.47;13.70;;;12.80;99.90;;;;;;5106458;28;20895;-69
2023/08/07 06:36:27;;;;;;;16.30;15.13;;;12.90;99.90;;;;;;5104718;28;20592;-69
2023/08/07 06:38:53;;;;;;;16.00;15.10;;;12.90;99.90;;;;;;5100050;28;20441;-69
2023/08/07 06:41:20;;;;;;;16.13;15.03;;;12.80;99.90;;;;;;5099447;28;20450;-69
2023/08/07 06:43:47;;;;;;;15.97;14.83;;;12.80;99.90;;;;;;5097330;28;20492;-68
2023/08/07 06:46:13;;;;;;;16.17;15.10;;;12.80;99.90;;;;;;5102261;28;20462;-70
2023/08/07 06:48:43;;;;;;;14.90;13.90;;;12.70;99.90;;;;;;5098782;28;20458;-69
2023/08/07 06:51:09;;;;;;;16.63;14.90;;;12.70;99.90;;;;;;5104578;28;20465;-70
2023/08/07 06:53:38;;;;;;;13.87;13.27;;;12.70;99.90;;;;;;5109112;28;20508;-70
2023/08/07 06:56:06;;;;;;;14.90;14.20;;;12.80;99.90;;;;;;5104991;27;20461;-68
2023/08/07 06:58:33;;;;;;;14.63;13.63;;;12.80;99.90;;;;;;5100726;28;20461;-67
2023/08/07 07:01:00;;;;;;;15.73;14.83;;;12.90;99.90;;;;;;5097000;28;20465;-71
2023/08/07 07:03:26;;;;;;;16.27;15.17;;;12.90;99.90;;;;;;5090864;28;22322;-69
2023/08/07 07:05:55;;;;;;;14.57;13.87;;;12.90;99.90;;;;;;5099900;28;20531;-69
2023/08/07 07:08:23;;;;;;;15.00;14.30;;;12.90;99.90;;;;;;5100705;28;20473;-69
2023/08/07 07:10:49;;;;;;;15.47;14.67;;;12.90;99.90;;;;;;5102535;28;20472;-69
2023/08/07 07:13:16;;;;;;;15.50;14.70;;;13.00;99.90;;;;;;5108455;28;20485;-69
2023/08/07 07:15:43;;;;;;;16.87;15.87;;;13.00;99.90;;;;;;5107637;27;20480;-73
2023/08/07 07:18:12;;;;;;;19.23;14.87;;;13.00;99.90;;;;;;5109914;28;20474;-69
2023/08/07 07:20:38;;;;;;;16.50;15.40;;;13.00;99.90;;;;;;5091728;28;20470;-70
2023/08/07 07:23:07;;;;;;;15.73;14.50;;;13.10;99.90;;;;;;5099537;28;20469;-69
2023/08/07 07:25:35;;;;;;;15.80;14.70;;;13.10;99.90;;;;;;5095819;28;20572;-71
2023/08/07 07:28:01;;;;;;;32.23;14.10;;;13.20;99.90;;;;;;5103330;28;20885;-70
2023/08/07 07:30:28;;;;;;;14.73;13.83;;;13.30;99.90;;;;;;5096590;28;20465;-69
2023/08/07 07:32:56;;;;;;;14.33;13.23;;;13.40;99.90;;;;;;5098171;28;20489;-68
2023/08/07 07:35:22;;;;;;;14.67;13.97;;;13.50;99.90;;;;;;5094236;28;20845;-69
2023/08/07 07:37:49;;;;;;;15.20;14.40;;;13.60;99.90;;;;;;5092534;28;20469;-67
2023/08/07 07:40:18;;;;;;;15.07;13.97;;;13.60;99.90;;;;;;5096305;28;20506;-70
2023/08/07 07:42:44;;;;;;;14.13;13.43;;;13.60;99.90;;;;;;5086631;28;20464;-70
2023/08/07 07:45:11;;;;;;;13.97;13.23;;;13.70;99.90;;;;;;5085263;28;20466;-67
2023/08/07 07:47:38;;;;;;;14.80;14.00;;;13.80;99.90;;;;;;5086166;28;20819;-68
2023/08/07 07:50:07;;;;;;;14.07;13.20;;;13.80;99.90;;;;;;5097775;28;20445;-69
2023/08/07 07:52:35;;;;;;;13.20;12.60;;;13.90;99.90;;;;;;5099607;28;20581;-68
2023/08/07 07:55:03;;;;;;;13.30;12.70;;;14.00;99.90;;;;;;5095340;28;21015;-68
2023/08/07 07:57:32;;;;;;;14.83;14.13;;;14.10;99.90;;;;;;5105758;28;20457;-67
2023/08/07 08:00:00;;;;;;;16.53;15.40;;;14.20;99.90;;;;;;5093207;28;20849;-68
2023/08/07 08:02:27;;;;;;;15.40;14.40;;;14.30;99.90;;;;;;5091885;28;20853;-68
2023/08/07 08:04:56;;;;;;;14.53;13.83;;;14.30;99.90;;;;;;5100051;28;20469;-67
2023/08/07 08:07:23;;;;;;;16.00;15.10;;;14.50;99.90;;;;;;5086160;28;20458;-69
2023/08/07 08:09:50;;;;;;;15.70;14.80;;;14.50;99.90;;;;;;5105328;28;20457;-69
2023/08/07 08:12:17;;;;;;;15.93;15.03;;;14.60;99.90;;;;;;5088059;28;20473;-70
2023/08/07 08:14:45;;;;;;;16.30;14.60;;;14.80;99.90;;;;;;5094441;28;20465;-70
2023/08/07 08:17:12;;;;;;;14.63;13.57;;;14.70;99.90;;;;;;5103260;28;20477;-68
2023/08/07 08:19:40;;;;;;;13.57;12.77;;;14.90;99.90;;;;;;5105055;28;20875;-68
2023/08/07 08:22:08;;;;;;;12.70;12.00;;;15.00;99.90;;;;;;5099363;28;20547;-68
2023/08/07 08:24:34;;;;;;;12.40;11.70;;;15.10;99.90;;;;;;5101509;28;20458;-69
2023/08/07 08:27:01;;;;;;;12.87;12.20;;;15.20;99.90;;;;;;5093012;28;20446;-70
2023/08/07 08:29:28;;;;;;;13.47;12.67;;;15.20;99.90;;;;;;5092772;28;20466;-69
2023/08/07 08:31:57;;;;;;;13.20;12.50;;;15.30;99.90;;;;;;5093474;28;20523;-68
2023/08/07 08:34:26;;;;;;;11.50;11.00;;;15.40;99.90;;;;;;5107849;28;20810;-70
2023/08/07 08:36:53;;;;;;;12.83;12.00;;;15.70;99.90;;;;;;5091731;28;20802;-69
2023/08/07 08:39:20;;;;;;;13.37;12.47;;;15.70;99.90;;;;;;5088236;28;20778;-70
2023/08/07 08:41:48;;;;;;;13.23;12.30;;;15.40;99.90;;;;;;5085916;28;20468;-69
2023/08/07 08:44:17;;;;;;;11.43;10.90;;;15.20;99.90;;;;;;5104145;28;20473;-69
2023/08/07 08:46:45;;;;;;;11.97;11.17;;;15.10;99.90;;;;;;5096245;28;20465;-68
2023/08/07 08:49:17;;;;;;;12.10;11.13;;;14.90;99.90;;;;;;5091560;28;20462;-70
2023/08/07 08:51:46;;;;;;;9.93;9.23;;;14.90;99.90;;;;;;5098629;28;20856;-68
2023/08/07 08:54:14;;;;;;;10.80;10.00;;;14.80;99.90;;;;;;5101335;28;20501;-69
2023/08/07 08:56:41;;;;;;;9.40;8.60;;;14.60;99.90;;;;;;5101061;28;20865;-69
2023/08/07 08:59:08;;;;;;;7.37;7.07;;;14.70;99.90;;;;;;5096985;28;20471;-69
2023/08/07 09:01:36;;;;;;;10.00;9.03;;;14.90;99.90;;;;;;5092760;28;20566;-69
2023/08/07 09:04:04;;;;;;;11.57;10.20;;;15.00;99.90;;;;;;5093763;28;20464;-68
2023/08/07 09:06:34;;;;;;;11.77;11.10;;;15.20;99.90;;;;;;5087945;28;20458;-68
2023/08/07 09:09:02;;;;;;;10.90;10.40;;;15.50;99.90;;;;;;5097261;28;20508;-70
2023/08/07 09:11:30;;;;;;;13.43;12.40;;;15.80;99.90;;;;;;5092512;28;20453;-69
2023/08/07 09:13:57;;;;;;;13.53;12.57;;;16.20;99.90;;;;;;5098242;28;20823;-68
2023/08/07 09:16:25;;;;;;;13.63;13.03;;;16.20;99.90;;;;;;5108970;27;20913;-67
2023/08/07 09:18:54;;;;;;;13.70;12.90;;;16.20;99.90;;;;;;5093697;28;20453;-68
2023/08/07 09:21:21;;;;;;;13.50;12.90;;;16.20;99.90;;;;;;5098489;28;20459;-67
2023/08/07 09:23:49;;;;;;;14.50;13.60;;;16.30;99.90;;;;;;5097497;28;20532;-68
2023/08/07 09:26:23;;;;;;;14.53;13.73;;;16.90;99.90;;;;;;5100134;28;20805;-67
2023/08/07 09:28:52;;;;;;;14.37;13.77;;;17.60;99.90;;;;;;5097701;28;20576;-69
2023/08/07 09:31:19;;;;;;;16.03;15.07;;;17.90;99.90;;;;;;5099120;28;20460;-69
2023/08/07 09:33:49;;;;;;;14.63;13.97;;;18.30;99.90;;;;;;5102057;28;20484;-68
2023/08/07 09:36:17;;;;;;;15.17;14.37;;;18.50;99.90;;;;;;5102653;28;21343;-69
2023/08/07 09:38:43;;;;;;;15.60;14.80;;;18.40;99.90;;;;;;5096040;28;20463;-70
2023/08/07 09:41:12;;;;;;;16.13;15.17;;;18.50;99.90;;;;;;5091123;28;20805;-69
2023/08/07 09:43:38;;;;;;;15.13;14.43;;;18.70;99.90;;;;;;5097334;28;20453;-70
2023/08/07 09:46:06;;;;;;;15.73;14.93;;;18.70;99.90;;;;;;5100365;28;20871;-68
2023/08/07 09:48:40;;;;;;;15.97;15.07;;;18.60;99.90;;;;;;5095857;28;20453;-69
2023/08/07 09:51:07;;;;;;;15.87;15.10;;;18.90;99.90;;;;;;5101602;28;20481;-69
2023/08/07 09:53:34;;;;;;;15.63;14.90;;;19.60;99.90;;;;;;5101721;28;21015;-70
2023/08/07 09:56:01;;;;;;;17.37;15.97;;;19.90;99.90;;;;;;5098356;28;20463;-69
2023/08/07 09:58:30;;;;;;;16.27;15.50;;;20.10;99.90;;;;;;5095169;27;20907;-69
2023/08/07 10:00:59;;;;;;;16.20;15.40;;;19.90;99.90;;;;;;5091518;28;20936;-71
2023/08/07 10:03:27;;;;;;;16.30;15.50;;;19.90;99.90;;;;;;5096291;28;20548;-70
2023/08/07 10:05:55;;;;;;;16.30;15.40;;;19.90;99.90;;;;;;5099692;28;20469;-69
2023/08/07 10:08:24;;;;;;;15.63;14.93;;;20.20;99.90;;;;;;5094672;27;20527;-73
2023/08/07 10:10:52;;;;;;;16.53;15.23;;;20.40;99.90;;;;;;5093215;28;20458;-69
2023/08/07 10:13:20;;;;;;;18.57;16.60;;;20.20;99.90;;;;;;5091053;28;20518;-69
2023/08/07 10:15:50;;;;;;;16.63;15.83;;;20.00;99.90;;;;;;5106712;28;21042;-69
2023/08/07 10:18:17;;;;;;;16.30;15.50;;;19.50;99.90;;;;;;5098543;28;20457;-70
2023/08/07 10:20:44;;;;;;;16.27;15.47;;;18.90;99.90;;;;;;5099133;28;20450;-69
2023/08/07 10:23:14;;;;;;;16.47;15.67;;;18.90;99.90;;;;;;5094432;28;20476;-69
2023/08/07 10:25:47;;;;;;;16.60;15.70;;;19.10;99.90;;;;;;5100700;28;20460;-69
2023/08/07 10:28:18;;;;;;;16.90;16.00;;;18.70;99.90;;;;;;5094502;28;20457;-68
2023/08/07 10:30:45;;;;;;;15.50;14.80;;;18.90;99.90;;;;;;5092446;28;20473;-68
2023/08/07 10:33:14;;;;;;;16.17;15.37;;;18.90;99.90;;;;;;5092447;28;20481;-70
2023/08/07 10:35:46;;;;;;;16.27;15.23;;;19.00;99.90;;;;;;5102182;28;20457;-68
2023/08/07 10:38:13;;;;;;;16.83;15.93;;;19.30;99.90;;;;;;5098286;28;20800;-68
2023/08/07 10:41:03;;;;;;;15.47;14.77;;;19.60;99.90;;;;;;5099818;28;20457;-67
2023/08/07 10:43:31;;;;;;;16.43;15.63;;;19.90;99.90;;;;;;5098676;28;20464;-67
2023/08/07 10:46:05;;;;;;;17.10;16.10;;;20.40;99.90;;;;;;5096529;28;20471;-69
2023/08/07 10:48:41;;;;;;;17.77;16.70;;;20.30;99.90;;;;;;5091463;28;20462;-69
2023/08/07 10:51:09;;;;;;;16.03;15.13;;;19.70;99.90;;;;;;5100277;28;20540;-67
2023/08/07 10:53:42;;;;;;;17.60;15.87;;;20.00;99.90;;;;;;5093491;28;20818;-68
2023/08/07 10:56:10;;;;;;;16.27;15.57;;;20.20;99.90;;;;;;5100803;28;20775;-68
2023/08/07 10:58:38;;;;;;;16.00;15.30;;;20.30;99.90;;;;;;5092443;28;20457;-68
2023/08/07 11:01:22;;;;;;;17.27;16.37;;;20.50;99.90;;;;;;5096916;28;20585;-69
2023/08/07 11:03:52;;;;;;;16.37;15.57;;;20.70;99.90;;;;;;5092500;28;20464;-69
2023/08/07 11:06:22;;;;;;;17.43;16.53;;;20.30;99.90;;;;;;5093236;28;21176;-69
2023/08/07 11:08:49;;;;;;;20.63;18.77;;;20.00;99.90;;;;;;5100766;28;20556;-68
2023/08/07 11:11:17;;;;;;;17.57;16.77;;;20.40;99.90;;;;;;5097395;28;20454;-69
2023/08/07 11:13:44;;;;;;;17.43;16.63;;;20.90;99.90;;;;;;5100971;28;20499;-67
2023/08/07 11:16:13;;;;;;;16.87;16.07;;;20.70;99.90;;;;;;5103066;28;20838;-71
2023/08/07 11:18:41;;;;;;;17.07;16.27;;;20.30;99.90;;;;;;5087029;28;20565;-69
2023/08/07 11:21:10;;;;;;;17.87;16.60;;;20.40;99.90;;;;;;5090718;28;20467;-70
2023/08/07 11:23:37;;;;;;;17.90;16.80;;;20.70;99.90;;;;;;5090965;28;20503;-68
2023/08/07 11:26:05;;;;;;;18.00;17.00;;;20.30;99.90;;;;;;5095834;28;20469;-69
2023/08/07 11:28:33;;;;;;;16.50;15.70;;;20.50;99.90;;;;;;5094939;28;20467;-68
2023/08/07 11:31:00;;;;;;;20.33;19.20;;;20.80;99.90;;;;;;5100884;28;20506;-69
2023/08/07 11:33:28;;;;;;;22.07;21.00;;;21.30;99.90;;;;;;5096895;28;20489;-68
2023/08/07 11:35:56;;;;;;;16.70;15.90;;;21.20;99.90;;;;;;5101057;28;20969;-68
2023/08/07 11:38:35;;;;;;;17.80;16.90;;;21.40;99.90;;;;;;5092706;28;20470;-69
2023/08/07 11:41:04;;;;;;;16.87;16.07;;;21.40;99.90;;;;;;5099472;28;20445;-68
2023/08/07 11:43:33;;;;;;;17.33;16.33;;;21.70;99.90;;;;;;5093842;28;20567;-68
2023/08/07 11:46:02;;;;;;;18.87;17.30;;;22.40;99.90;;;;;;5102876;28;20479;-67
2023/08/07 11:48:31;;;;;;;17.40;16.60;;;21.90;99.90;;;;;;5088412;28;20458;-67
2023/08/07 11:50:59;;;;;;;28.07;26.60;;;21.00;99.90;;;;;;5096151;28;20531;-69
2023/08/07 11:53:28;;;;;;;29.97;28.50;;;20.30;99.90;;;;;;5091688;28;20494;-68
2023/08/07 11:55:59;;;;;;;17.70;16.80;;;20.30;99.90;;;;;;5092930;28;20448;-67
2023/08/07 11:58:27;;;;;;;24.40;23.20;;;19.80;99.90;;;;;;5091795;28;20545;-67
2023/08/07 12:00:53;;;;;;;17.07;16.27;;;19.90;99.90;;;;;;5099784;28;20476;-66
2023/08/07 12:03:28;;;;;;;20.30;19.07;;;20.50;99.90;;;;;;5101677;28;20457;-70
2023/08/07 12:05:57;;;;;;;17.00;16.07;;;20.90;99.90;;;;;;5093058;27;20456;-68
2023/08/07 12:08:24;;;;;;;16.00;15.30;;;21.20;99.90;;;;;;5095435;28;20512;-67
2023/08/07 12:10:52;;;;;;;26.63;25.40;;;21.60;99.90;;;;;;5088635;28;20466;-67
2023/08/07 12:13:27;;;;;;;21.10;20.03;;;22.10;99.90;;;;;;5094753;28;20748;-69
2023/08/07 12:15:55;;;;;;;17.47;16.67;;;22.80;99.90;;;;;;5096665;28;20475;-67
2023/08/07 12:18:23;;;;;;;20.23;19.07;;;22.80;99.90;;;;;;5094068;28;20457;-67
2023/08/07 12:20:51;;;;;;;26.60;25.20;;;22.10;99.90;;;;;;5090101;28;20466;-69
2023/08/07 12:23:19;;;;;;;19.87;18.83;;;21.20;99.90;;;;;;5091406;28;20566;-66
2023/08/07 12:25:47;;;;;;;20.63;19.63;;;20.60;99.90;;;;;;5098782;28;20528;-69
2023/08/07 12:28:13;;;;;;;18.03;17.13;;;20.90;99.90;;;;;;5092320;28;20458;-68
2023/08/07 12:30:45;;;;;;;22.00;21.00;;;21.50;99.90;;;;;;5095505;28;20544;-67
2023/08/07 12:33:12;;;;;;;17.93;17.03;;;21.00;99.90;;;;;;5092797;28;20457;-68